PWSweather.com
Personal Weather Stations
Station Observations
ANTHEMNP
Anthem North Parkside, Anthem, AZ 85086

Anthem North ParksideAnthem, AZ 85086

Lat: 33.876464, Lon: -112.13861199999997

Elevation: 1930

Station Type: Davis Vantage Vue with Pro 2 console

http://www.azjerry.com/ANPW/wxindex.php

High Low Average
Temperature 94.3°F34.6°C 69.2°F20.7°C 82.1°F27.8°C
Dew Point 38.0°F3.3°C 22.0°F-5.6°C 29.4°F-1.4°C
Winds 8.0 mph 12.9 kmh Calm Calm 2.0 mph SE3.2 kmh SE
Wind Gusts 14.0 mph22.5 kmh -- 6.0 mph9.7 kmh
Humidity 22% 9% 15%
Pressure 30.01 in1016.3 mb 29.88 in1011.9 mb -
Precipitation 0.00 in0.0 mm - -
Hour Temp Dew Point Humidity Winds Wind Gusts Pressure Precip Precip Rate Daily Precip Total
12:00 AM 74.9°F23.8°C 24.0°F-4.4°C 15% 4.4 mph NNE7.1 kmh NNE 11.0 mph17.7 kmh 29.90 in1012.5 mb 0.00 in0.0 mm 0.00 in0.0 mm 0.00 in0.0 mm
12:10 AM 74.6°F23.7°C 25.0°F-3.9°C 16% 4.1 mph NNE6.6 kmh NNE 7.0 mph11.3 kmh 29.90 in1012.5 mb 0.00 in0.0 mm 0.00 in0.0 mm 0.00 in0.0 mm
12:20 AM 74.2°F23.4°C 25.0°F-3.9°C 16% 3.5 mph N5.6 kmh N 9.0 mph14.5 kmh 29.90 in1012.5 mb 0.00 in0.0 mm 0.00 in0.0 mm 0.00 in0.0 mm
12:30 AM 73.7°F23.2°C 25.0°F-3.9°C 16% 4.4 mph NE7.1 kmh NE 8.0 mph12.9 kmh 29.90 in1012.5 mb 0.00 in0.0 mm 0.00 in0.0 mm 0.00 in0.0 mm
12:40 AM 73.4°F23.0°C 24.0°F-4.4°C 16% 4.1 mph N6.6 kmh N 7.0 mph11.3 kmh 29.91 in1012.9 mb 0.00 in0.0 mm 0.00 in0.0 mm 0.00 in0.0 mm
12:50 AM 73.7°F23.2°C 25.0°F-3.9°C 16% 4.6 mph NW7.4 kmh NW 8.0 mph12.9 kmh 29.90 in1012.5 mb 0.00 in0.0 mm 0.00 in0.0 mm 0.00 in0.0 mm
01:00 AM 74.4°F23.6°C 24.0°F-4.4°C 15% 5.2 mph NNE8.4 kmh NNE 11.0 mph17.7 kmh 29.91 in1012.9 mb 0.00 in0.0 mm 0.00 in0.0 mm 0.00 in0.0 mm
01:10 AM 73.9°F23.3°C 25.0°F-3.9°C 16% 4.7 mph NE7.6 kmh NE 8.0 mph12.9 kmh 29.91 in1012.9 mb 0.00 in0.0 mm 0.00 in0.0 mm 0.00 in0.0 mm
01:20 AM 73.4°F23.0°C 24.0°F-4.4°C 16% 5.1 mph NNE8.2 kmh NNE 9.0 mph14.5 kmh 29.91 in1012.9 mb 0.00 in0.0 mm 0.00 in0.0 mm 0.00 in0.0 mm
01:30 AM 72.6°F22.6°C 24.0°F-4.4°C 16% 5.0 mph NNE8.0 kmh NNE 10.0 mph16.1 kmh 29.91 in1012.9 mb 0.00 in0.0 mm 0.00 in0.0 mm 0.00 in0.0 mm
01:40 AM 72.1°F22.3°C 25.0°F-3.9°C 17% 6.1 mph N9.8 kmh N 11.0 mph17.7 kmh 29.91 in1012.9 mb 0.00 in0.0 mm 0.00 in0.0 mm 0.00 in0.0 mm
01:50 AM 71.8°F22.1°C 25.0°F-3.9°C 17% 6.5 mph NNE10.5 kmh NNE 12.0 mph19.3 kmh 29.91 in1012.9 mb 0.00 in0.0 mm 0.00 in0.0 mm 0.00 in0.0 mm
02:00 AM 71.6°F22.0°C 24.0°F-4.4°C 17% 6.0 mph NNE9.7 kmh NNE 12.0 mph19.3 kmh 29.91 in1012.9 mb 0.00 in0.0 mm 0.00 in0.0 mm 0.00 in0.0 mm
02:10 AM 71.5°F21.9°C 24.0°F-4.4°C 17% 5.4 mph NNE8.7 kmh NNE 12.0 mph19.3 kmh 29.91 in1012.9 mb 0.00 in0.0 mm 0.00 in0.0 mm 0.00 in0.0 mm
02:20 AM 72.2°F22.3°C 23.0°F-5.0°C 16% 6.5 mph NNE10.5 kmh NNE 10.0 mph16.1 kmh 29.91 in1012.9 mb 0.00 in0.0 mm 0.00 in0.0 mm 0.00 in0.0 mm
02:30 AM 71.8°F22.1°C 23.0°F-5.0°C 16% 6.3 mph N10.1 kmh N 12.0 mph19.3 kmh 29.91 in1012.9 mb 0.00 in0.0 mm 0.00 in0.0 mm 0.00 in0.0 mm
02:40 AM 73.2°F22.9°C 24.0°F-4.4°C 16% 6.4 mph NNE10.3 kmh NNE 14.0 mph22.5 kmh 29.91 in1012.9 mb 0.00 in0.0 mm 0.00 in0.0 mm 0.00 in0.0 mm
02:50 AM 73.3°F22.9°C 23.0°F-5.0°C 15% 7.2 mph N11.6 kmh N 13.0 mph20.9 kmh 29.91 in1012.9 mb 0.00 in0.0 mm 0.00 in0.0 mm 0.00 in0.0 mm
03:00 AM 72.9°F22.7°C 24.0°F-4.4°C 16% 7.5 mph NE12.1 kmh NE 12.0 mph19.3 kmh 29.90 in1012.5 mb 0.00 in0.0 mm 0.00 in0.0 mm 0.00 in0.0 mm
03:10 AM 72.9°F22.7°C 24.0°F-4.4°C 16% 7.7 mph N12.4 kmh N 14.0 mph22.5 kmh 29.90 in1012.5 mb 0.00 in0.0 mm 0.00 in0.0 mm 0.00 in0.0 mm
03:20 AM 74.1°F23.4°C 24.0°F-4.4°C 15% 8.0 mph N12.9 kmh N 14.0 mph22.5 kmh 29.90 in1012.5 mb 0.00 in0.0 mm 0.00 in0.0 mm 0.00 in0.0 mm
03:30 AM 73.4°F23.0°C 23.0°F-5.0°C 15% 6.4 mph NNE10.3 kmh NNE 12.0 mph19.3 kmh 29.90 in1012.5 mb 0.00 in0.0 mm 0.00 in0.0 mm 0.00 in0.0 mm
03:40 AM 72.2°F22.3°C 23.0°F-5.0°C 16% 5.5 mph N8.9 kmh N 11.0 mph17.7 kmh 29.90 in1012.5 mb 0.00 in0.0 mm 0.00 in0.0 mm 0.00 in0.0 mm
03:50 AM 70.8°F21.6°C 24.0°F-4.4°C 17% 5.6 mph NNE9.0 kmh NNE 12.0 mph19.3 kmh 29.91 in1012.9 mb 0.00 in0.0 mm 0.00 in0.0 mm 0.00 in0.0 mm
04:00 AM 70.5°F21.4°C 24.0°F-4.4°C 17% 5.8 mph N9.3 kmh N 10.0 mph16.1 kmh 29.91 in1012.9 mb 0.00 in0.0 mm 0.00 in0.0 mm 0.00 in0.0 mm
04:10 AM 70.6°F21.4°C 24.0°F-4.4°C 17% 7.3 mph NNE11.7 kmh NNE 12.0 mph19.3 kmh 29.91 in1012.9 mb 0.00 in0.0 mm 0.00 in0.0 mm 0.00 in0.0 mm
04:20 AM 70.3°F21.3°C 23.0°F-5.0°C 17% 6.1 mph NNE9.8 kmh NNE 10.0 mph16.1 kmh 29.91 in1012.9 mb 0.00 in0.0 mm 0.00 in0.0 mm 0.00 in0.0 mm
04:30 AM 70.3°F21.3°C 23.0°F-5.0°C 17% 5.4 mph N8.7 kmh N 11.0 mph17.7 kmh 29.92 in1013.2 mb 0.00 in0.0 mm 0.00 in0.0 mm 0.00 in0.0 mm
04:40 AM 69.6°F20.9°C 24.0°F-4.4°C 18% 3.9 mph NNW6.3 kmh NNW 9.0 mph14.5 kmh 29.92 in1013.2 mb 0.00 in0.0 mm 0.00 in0.0 mm 0.00 in0.0 mm
04:50 AM 69.5°F20.8°C 24.0°F-4.4°C 18% 5.7 mph NE9.2 kmh NE 12.0 mph19.3 kmh 29.92 in1013.2 mb 0.00 in0.0 mm 0.00 in0.0 mm 0.00 in0.0 mm
05:00 AM 69.6°F20.9°C 24.0°F-4.4°C 18% 5.2 mph N8.4 kmh N 10.0 mph16.1 kmh 29.93 in1013.5 mb 0.00 in0.0 mm 0.00 in0.0 mm 0.00 in0.0 mm
05:10 AM 69.2°F20.7°C 24.0°F-4.4°C 18% 2.7 mph N4.3 kmh N 9.0 mph14.5 kmh 29.94 in1013.9 mb 0.00 in0.0 mm 0.00 in0.0 mm 0.00 in0.0 mm
05:20 AM 69.7°F20.9°C 23.0°F-5.0°C 17% 1.9 mph N3.1 kmh N 6.0 mph9.7 kmh 29.94 in1013.9 mb 0.00 in0.0 mm 0.00 in0.0 mm 0.00 in0.0 mm
05:30 AM 70.4°F21.3°C 23.0°F-5.0°C 17% 2.9 mph NE4.7 kmh NE 12.0 mph19.3 kmh 29.95 in1014.2 mb 0.00 in0.0 mm 0.00 in0.0 mm 0.00 in0.0 mm
05:40 AM 70.5°F21.4°C 24.0°F-4.4°C 17% 2.6 mph NNE4.2 kmh NNE 8.0 mph12.9 kmh 29.95 in1014.2 mb 0.00 in0.0 mm 0.00 in0.0 mm 0.00 in0.0 mm
05:50 AM 69.5°F20.8°C 23.0°F-5.0°C 17% 1.4 mph N2.3 kmh N 4.0 mph6.4 kmh 29.95 in1014.2 mb 0.00 in0.0 mm 0.00 in0.0 mm 0.00 in0.0 mm
06:00 AM 69.8°F21.0°C 23.0°F-5.0°C 17% 3.5 mph N5.6 kmh N 6.0 mph9.7 kmh 29.95 in1014.2 mb 0.00 in0.0 mm 0.00 in0.0 mm 0.00 in0.0 mm
06:10 AM 69.6°F20.9°C 23.0°F-5.0°C 17% 3.2 mph NNE5.1 kmh NNE 6.0 mph9.7 kmh 29.95 in1014.2 mb 0.00 in0.0 mm 0.00 in0.0 mm 0.00 in0.0 mm
06:20 AM 70.0°F21.1°C 23.0°F-5.0°C 17% 2.4 mph NNE3.9 kmh NNE 7.0 mph11.3 kmh 29.96 in1014.6 mb 0.00 in0.0 mm 0.00 in0.0 mm 0.00 in0.0 mm
06:30 AM 70.0°F21.1°C 23.0°F-5.0°C 17% 2.9 mph N4.7 kmh N 7.0 mph11.3 kmh 29.96 in1014.6 mb 0.00 in0.0 mm 0.00 in0.0 mm 0.00 in0.0 mm
06:40 AM 69.8°F21.0°C 23.0°F-5.0°C 17% 1.6 mph N2.6 kmh N 5.0 mph8.0 kmh 29.97 in1014.9 mb 0.00 in0.0 mm 0.00 in0.0 mm 0.00 in0.0 mm
06:50 AM 70.6°F21.4°C 22.0°F-5.6°C 16% 1.8 mph NNE2.9 kmh NNE 7.0 mph11.3 kmh 29.97 in1014.9 mb 0.00 in0.0 mm 0.00 in0.0 mm 0.00 in0.0 mm
07:00 AM 71.0°F21.7°C 24.0°F-4.4°C 17% 1.9 mph NNE3.1 kmh NNE 5.0 mph8.0 kmh 29.97 in1014.9 mb 0.00 in0.0 mm 0.00 in0.0 mm 0.00 in0.0 mm
07:10 AM 71.0°F21.7°C 22.0°F-5.6°C 16% 1.2 mph NNE1.9 kmh NNE 3.0 mph4.8 kmh 29.97 in1014.9 mb 0.00 in0.0 mm 0.00 in0.0 mm 0.00 in0.0 mm
07:20 AM 72.4°F22.4°C 24.0°F-4.4°C 16% 2.4 mph N3.9 kmh N 4.0 mph6.4 kmh 29.98 in1015.2 mb 0.00 in0.0 mm 0.00 in0.0 mm 0.00 in0.0 mm
07:30 AM 72.7°F22.6°C 27.0°F-2.8°C 18% 0.4 mph N0.6 kmh N 1.0 mph1.6 kmh 29.98 in1015.2 mb 0.00 in0.0 mm 0.00 in0.0 mm 0.00 in0.0 mm
07:40 AM 73.7°F23.2°C 23.0°F-5.0°C 15% 1.3 mph NNE2.1 kmh NNE 7.0 mph11.3 kmh 29.98 in1015.2 mb 0.00 in0.0 mm 0.00 in0.0 mm 0.00 in0.0 mm
07:50 AM 74.6°F23.7°C 24.0°F-4.4°C 15% 2.5 mph N4.0 kmh N 5.0 mph8.0 kmh 29.98 in1015.2 mb 0.00 in0.0 mm 0.00 in0.0 mm 0.00 in0.0 mm
08:00 AM 76.4°F24.7°C 24.0°F-4.4°C 14% 2.3 mph N3.7 kmh N 5.0 mph8.0 kmh 29.98 in1015.2 mb 0.00 in0.0 mm 0.00 in0.0 mm 0.00 in0.0 mm
08:10 AM 77.4°F25.2°C 25.0°F-3.9°C 14% 2.8 mph N4.5 kmh N 5.0 mph8.0 kmh 29.99 in1015.6 mb 0.00 in0.0 mm 0.00 in0.0 mm 0.00 in0.0 mm
08:20 AM 78.2°F25.7°C 25.0°F-3.9°C 14% 2.9 mph NE4.7 kmh NE 6.0 mph9.7 kmh 29.99 in1015.6 mb 0.00 in0.0 mm 0.00 in0.0 mm 0.00 in0.0 mm
08:30 AM 78.7°F25.9°C 26.0°F-3.3°C 14% 3.6 mph NNW5.8 kmh NNW 7.0 mph11.3 kmh 29.99 in1015.6 mb 0.00 in0.0 mm 0.00 in0.0 mm 0.00 in0.0 mm
08:40 AM 79.4°F26.3°C 24.0°F-4.4°C 13% 3.6 mph NW5.8 kmh NW 7.0 mph11.3 kmh 29.99 in1015.6 mb 0.00 in0.0 mm 0.00 in0.0 mm 0.00 in0.0 mm
08:50 AM 80.2°F26.8°C 25.0°F-3.9°C 13% 2.8 mph ENE4.5 kmh ENE 6.0 mph9.7 kmh 30.00 in1015.9 mb 0.00 in0.0 mm 0.00 in0.0 mm 0.00 in0.0 mm
09:00 AM 81.2°F27.3°C 24.0°F-4.4°C 12% 2.7 mph N4.3 kmh N 6.0 mph9.7 kmh 30.00 in1015.9 mb 0.00 in0.0 mm 0.00 in0.0 mm 0.00 in0.0 mm
09:10 AM 82.2°F27.9°C 25.0°F-3.9°C 12% 2.0 mph NE3.2 kmh NE 4.0 mph6.4 kmh 30.00 in1015.9 mb 0.00 in0.0 mm 0.00 in0.0 mm 0.00 in0.0 mm
09:20 AM 83.2°F28.4°C 25.0°F-3.9°C 12% 1.1 mph N1.8 kmh N 3.0 mph4.8 kmh 30.00 in1015.9 mb 0.00 in0.0 mm 0.00 in0.0 mm 0.00 in0.0 mm
09:30 AM 84.8°F29.3°C 25.0°F-3.9°C 11% 0.5 mph WSW0.8 kmh WSW 2.0 mph3.2 kmh 30.00 in1015.9 mb 0.00 in0.0 mm 0.00 in0.0 mm 0.00 in0.0 mm
09:40 AM 85.8°F29.9°C 23.0°F-5.0°C 10% 0.6 mph WNW1.0 kmh WNW 2.0 mph3.2 kmh 30.01 in1016.3 mb 0.00 in0.0 mm 0.00 in0.0 mm 0.00 in0.0 mm
09:50 AM 86.7°F30.4°C 24.0°F-4.4°C 10% 1.0 mph NE1.6 kmh NE 4.0 mph6.4 kmh 30.01 in1016.3 mb 0.00 in0.0 mm 0.00 in0.0 mm 0.00 in0.0 mm
10:00 AM 88.9°F31.6°C 23.0°F-5.0°C 9% 0.3 mph S0.5 kmh S 3.0 mph4.8 kmh 30.00 in1015.9 mb 0.00 in0.0 mm 0.00 in0.0 mm 0.00 in0.0 mm
10:10 AM 88.9°F31.6°C 23.0°F-5.0°C 9% 1.1 mph SE1.8 kmh SE 5.0 mph8.0 kmh 30.00 in1015.9 mb 0.00 in0.0 mm 0.00 in0.0 mm 0.00 in0.0 mm
10:20 AM 88.7°F31.5°C 23.0°F-5.0°C 9% 1.6 mph SSW2.6 kmh SSW 4.0 mph6.4 kmh 30.00 in1015.9 mb 0.00 in0.0 mm 0.00 in0.0 mm 0.00 in0.0 mm
10:30 AM 89.4°F31.9°C 23.0°F-5.0°C 9% 1.2 mph SW1.9 kmh SW 3.0 mph4.8 kmh 30.00 in1015.9 mb 0.00 in0.0 mm 0.00 in0.0 mm 0.00 in0.0 mm
10:40 AM 88.7°F31.5°C 25.0°F-3.9°C 10% 2.5 mph SSW4.0 kmh SSW 5.0 mph8.0 kmh 29.99 in1015.6 mb 0.00 in0.0 mm 0.00 in0.0 mm 0.00 in0.0 mm
10:50 AM 89.4°F31.9°C 26.0°F-3.3°C 10% 1.9 mph S3.1 kmh S 5.0 mph8.0 kmh 29.99 in1015.6 mb 0.00 in0.0 mm 0.00 in0.0 mm 0.00 in0.0 mm
11:00 AM 90.4°F32.4°C 24.0°F-4.4°C 9% 1.7 mph SE2.7 kmh SE 4.0 mph6.4 kmh 29.99 in1015.6 mb 0.00 in0.0 mm 0.00 in0.0 mm 0.00 in0.0 mm
11:10 AM 90.7°F32.6°C 27.0°F-2.8°C 10% 1.9 mph SSE3.1 kmh SSE 6.0 mph9.7 kmh 29.99 in1015.6 mb 0.00 in0.0 mm 0.00 in0.0 mm 0.00 in0.0 mm
11:20 AM 90.1°F32.3°C 27.0°F-2.8°C 10% 2.8 mph SE4.5 kmh SE 9.0 mph14.5 kmh 29.99 in1015.6 mb 0.00 in0.0 mm 0.00 in0.0 mm 0.00 in0.0 mm
11:30 AM 90.8°F32.7°C 27.0°F-2.8°C 10% 2.2 mph SW3.5 kmh SW 6.0 mph9.7 kmh 29.99 in1015.6 mb 0.00 in0.0 mm 0.00 in0.0 mm 0.00 in0.0 mm
11:40 AM 90.6°F32.6°C 29.0°F-1.7°C 11% 3.2 mph SSW5.1 kmh SSW 8.0 mph12.9 kmh 29.98 in1015.2 mb 0.00 in0.0 mm 0.00 in0.0 mm 0.00 in0.0 mm
11:50 AM 91.0°F32.8°C 32.0°F0.0°C 12% 1.3 mph N2.1 kmh N 6.0 mph9.7 kmh 29.98 in1015.2 mb 0.00 in0.0 mm 0.00 in0.0 mm 0.00 in0.0 mm
12:00 PM 91.3°F32.9°C 32.0°F0.0°C 12% 2.1 mph SSW3.4 kmh SSW 6.0 mph9.7 kmh 29.98 in1015.2 mb 0.00 in0.0 mm 0.00 in0.0 mm 0.00 in0.0 mm
12:10 PM 92.1°F33.4°C 33.0°F0.6°C 12% 1.6 mph SSE2.6 kmh SSE 6.0 mph9.7 kmh 29.97 in1014.9 mb 0.00 in0.0 mm 0.00 in0.0 mm 0.00 in0.0 mm
12:20 PM 91.6°F33.1°C 38.0°F3.3°C 15% 2.3 mph S3.7 kmh S 6.0 mph9.7 kmh 29.97 in1014.9 mb 0.00 in0.0 mm 0.00 in0.0 mm 0.00 in0.0 mm
12:30 PM 92.3°F33.5°C 37.0°F2.8°C 14% 2.3 mph SSE3.7 kmh SSE 9.0 mph14.5 kmh 29.97 in1014.9 mb 0.00 in0.0 mm 0.00 in0.0 mm 0.00 in0.0 mm
12:40 PM 92.9°F33.8°C 33.0°F0.6°C 12% 2.0 mph NW3.2 kmh NW 7.0 mph11.3 kmh 29.97 in1014.9 mb 0.00 in0.0 mm 0.00 in0.0 mm 0.00 in0.0 mm
12:50 PM 92.7°F33.7°C 35.0°F1.7°C 13% 2.8 mph SW4.5 kmh SW 9.0 mph14.5 kmh 29.96 in1014.6 mb 0.00 in0.0 mm 0.00 in0.0 mm 0.00 in0.0 mm
01:00 PM 91.8°F33.2°C 32.0°F0.0°C 12% 3.6 mph SSW5.8 kmh SSW 8.0 mph12.9 kmh 29.96 in1014.6 mb 0.00 in0.0 mm 0.00 in0.0 mm 0.00 in0.0 mm
01:10 PM 91.0°F32.8°C 34.0°F1.1°C 13% 2.0 mph NNE3.2 kmh NNE 6.0 mph9.7 kmh 29.95 in1014.2 mb 0.00 in0.0 mm 0.00 in0.0 mm 0.00 in0.0 mm
01:20 PM 92.8°F33.8°C 35.0°F1.7°C 13% 2.4 mph WSW3.9 kmh WSW 12.0 mph19.3 kmh 29.95 in1014.2 mb 0.00 in0.0 mm 0.00 in0.0 mm 0.00 in0.0 mm
01:30 PM 93.4°F34.1°C 34.0°F1.1°C 12% 3.4 mph S5.5 kmh S 10.0 mph16.1 kmh 29.95 in1014.2 mb 0.00 in0.0 mm 0.00 in0.0 mm 0.00 in0.0 mm
01:40 PM 92.3°F33.5°C 35.0°F1.7°C 13% 5.2 mph SW8.4 kmh SW 10.0 mph16.1 kmh 29.95 in1014.2 mb 0.00 in0.0 mm 0.00 in0.0 mm 0.00 in0.0 mm
01:50 PM 92.4°F33.6°C 35.0°F1.7°C 13% 2.7 mph NNE4.3 kmh NNE 7.0 mph11.3 kmh 29.94 in1013.9 mb 0.00 in0.0 mm 0.00 in0.0 mm 0.00 in0.0 mm
02:00 PM 92.8°F33.8°C 35.0°F1.7°C 13% 1.8 mph S2.9 kmh S 6.0 mph9.7 kmh 29.93 in1013.5 mb 0.00 in0.0 mm 0.00 in0.0 mm 0.00 in0.0 mm
02:10 PM 92.6°F33.7°C 33.0°F0.6°C 12% 5.4 mph SSW8.7 kmh SSW 11.0 mph17.7 kmh 29.93 in1013.5 mb 0.00 in0.0 mm 0.00 in0.0 mm 0.00 in0.0 mm
02:20 PM 92.6°F33.7°C 35.0°F1.7°C 13% 2.4 mph SSW3.9 kmh SSW 7.0 mph11.3 kmh 29.93 in1013.5 mb 0.00 in0.0 mm 0.00 in0.0 mm 0.00 in0.0 mm
02:30 PM 92.7°F33.7°C 35.0°F1.7°C 13% 1.9 mph SW3.1 kmh SW 6.0 mph9.7 kmh 29.93 in1013.5 mb 0.00 in0.0 mm 0.00 in0.0 mm 0.00 in0.0 mm
02:40 PM 93.2°F34.0°C 35.0°F1.7°C 13% 3.8 mph S6.1 kmh S 8.0 mph12.9 kmh 29.93 in1013.5 mb 0.00 in0.0 mm 0.00 in0.0 mm 0.00 in0.0 mm
02:50 PM 93.3°F34.1°C 34.0°F1.1°C 12% 2.3 mph SE3.7 kmh SE 7.0 mph11.3 kmh 29.92 in1013.2 mb 0.00 in0.0 mm 0.00 in0.0 mm 0.00 in0.0 mm
03:00 PM 93.8°F34.3°C 34.0°F1.1°C 12% 1.7 mph SW2.7 kmh SW 6.0 mph9.7 kmh 29.92 in1013.2 mb 0.00 in0.0 mm 0.00 in0.0 mm 0.00 in0.0 mm
03:10 PM 94.3°F34.6°C 30.0°F-1.1°C 10% 2.2 mph SSW3.5 kmh SSW 7.0 mph11.3 kmh 29.91 in1012.9 mb 0.00 in0.0 mm 0.00 in0.0 mm 0.00 in0.0 mm
03:20 PM 94.0°F34.4°C 32.0°F0.0°C 11% 3.4 mph SW5.5 kmh SW 7.0 mph11.3 kmh 29.91 in1012.9 mb 0.00 in0.0 mm 0.00 in0.0 mm 0.00 in0.0 mm
03:30 PM 93.7°F34.3°C 32.0°F0.0°C 11% 2.2 mph SE3.5 kmh SE 5.0 mph8.0 kmh 29.91 in1012.9 mb 0.00 in0.0 mm 0.00 in0.0 mm 0.00 in0.0 mm
03:40 PM 93.5°F34.2°C 34.0°F1.1°C 12% 1.2 mph WNW1.9 kmh WNW 4.0 mph6.4 kmh 29.91 in1012.9 mb 0.00 in0.0 mm 0.00 in0.0 mm 0.00 in0.0 mm
03:50 PM 94.1°F34.5°C 32.0°F0.0°C 11% 1.2 mph SW1.9 kmh SW 4.0 mph6.4 kmh 29.90 in1012.5 mb 0.00 in0.0 mm 0.00 in0.0 mm 0.00 in0.0 mm
04:00 PM 93.7°F34.3°C 32.0°F0.0°C 11% 3.2 mph SW5.1 kmh SW 10.0 mph16.1 kmh 29.90 in1012.5 mb 0.00 in0.0 mm 0.00 in0.0 mm 0.00 in0.0 mm
04:10 PM 93.5°F34.2°C 36.0°F2.2°C 13% 2.4 mph SW3.9 kmh SW 7.0 mph11.3 kmh 29.89 in1012.2 mb 0.00 in0.0 mm 0.00 in0.0 mm 0.00 in0.0 mm
04:20 PM 93.5°F34.2°C 32.0°F0.0°C 11% 2.5 mph SSW4.0 kmh SSW 7.0 mph11.3 kmh 29.89 in1012.2 mb 0.00 in0.0 mm 0.00 in0.0 mm 0.00 in0.0 mm
04:30 PM 92.6°F33.7°C 31.0°F-0.6°C 11% 3.2 mph SSE5.1 kmh SSE 8.0 mph12.9 kmh 29.89 in1012.2 mb 0.00 in0.0 mm 0.00 in0.0 mm 0.00 in0.0 mm
04:40 PM 92.2°F33.4°C 30.0°F-1.1°C 11% 1.3 mph WNW2.1 kmh WNW 3.0 mph4.8 kmh 29.89 in1012.2 mb 0.00 in0.0 mm 0.00 in0.0 mm 0.00 in0.0 mm
04:50 PM 92.2°F33.4°C 33.0°F0.6°C 12% 0.6 mph WNW1.0 kmh WNW 2.0 mph3.2 kmh 29.89 in1012.2 mb 0.00 in0.0 mm 0.00 in0.0 mm 0.00 in0.0 mm
05:00 PM 91.7°F33.2°C 30.0°F-1.1°C 11% 1.1 mph SSE1.8 kmh SSE 5.0 mph8.0 kmh 29.89 in1012.2 mb 0.00 in0.0 mm 0.00 in0.0 mm 0.00 in0.0 mm
05:10 PM 91.6°F33.1°C 30.0°F-1.1°C 11% 0.4 mph NNW0.6 kmh NNW 2.0 mph3.2 kmh 29.89 in1012.2 mb 0.00 in0.0 mm 0.00 in0.0 mm 0.00 in0.0 mm
05:20 PM 90.7°F32.6°C 33.0°F0.6°C 13% Calm Calm 1.0 mph1.6 kmh 29.89 in1012.2 mb 0.00 in0.0 mm 0.00 in0.0 mm 0.00 in0.0 mm
05:30 PM 90.8°F32.7°C 34.0°F1.1°C 13% 0.4 mph WNW0.6 kmh WNW 2.0 mph3.2 kmh 29.89 in1012.2 mb 0.00 in0.0 mm 0.00 in0.0 mm 0.00 in0.0 mm
05:40 PM 90.9°F32.7°C 32.0°F0.0°C 12% 0.6 mph N1.0 kmh N 3.0 mph4.8 kmh 29.88 in1011.9 mb 0.00 in0.0 mm 0.00 in0.0 mm 0.00 in0.0 mm
05:50 PM 90.1°F32.3°C 31.0°F-0.6°C 12% Calm Calm 1.0 mph1.6 kmh 29.89 in1012.2 mb 0.00 in0.0 mm 0.00 in0.0 mm 0.00 in0.0 mm
06:00 PM 90.1°F32.3°C 33.0°F0.6°C 13% 0.6 mph W1.0 kmh W 3.0 mph4.8 kmh 29.89 in1012.2 mb 0.00 in0.0 mm 0.00 in0.0 mm 0.00 in0.0 mm
06:10 PM 90.0°F32.2°C 36.0°F2.2°C 15% 0.1 mph WNW0.2 kmh WNW 3.0 mph4.8 kmh 29.89 in1012.2 mb 0.00 in0.0 mm 0.00 in0.0 mm 0.00 in0.0 mm
06:20 PM 89.5°F31.9°C 36.0°F2.2°C 15% 0.1 mph W0.2 kmh W 2.0 mph3.2 kmh 29.89 in1012.2 mb 0.00 in0.0 mm 0.00 in0.0 mm 0.00 in0.0 mm
06:30 PM 88.8°F31.6°C 37.0°F2.8°C 16% Calm Calm 1.0 mph1.6 kmh 29.88 in1011.9 mb 0.00 in0.0 mm 0.00 in0.0 mm 0.00 in0.0 mm
06:40 PM 88.3°F31.3°C 37.0°F2.8°C 16% 0.1 mph SSW0.2 kmh SSW 2.0 mph3.2 kmh 29.88 in1011.9 mb 0.00 in0.0 mm 0.00 in0.0 mm 0.00 in0.0 mm
06:50 PM 88.1°F31.2°C 37.0°F2.8°C 16% 0.1 mph SSW0.2 kmh SSW 1.0 mph1.6 kmh 29.88 in1011.9 mb 0.00 in0.0 mm 0.00 in0.0 mm 0.00 in0.0 mm
07:00 PM 87.1°F30.6°C 36.0°F2.2°C 16% Calm Calm -- 29.88 in1011.9 mb 0.00 in0.0 mm 0.00 in0.0 mm 0.00 in0.0 mm
07:10 PM 86.0°F30.0°C 36.0°F2.2°C 17% Calm Calm -- 29.88 in1011.9 mb 0.00 in0.0 mm 0.00 in0.0 mm 0.00 in0.0 mm
07:20 PM 85.4°F29.7°C 37.0°F2.8°C 18% Calm Calm -- 29.89 in1012.2 mb 0.00 in0.0 mm 0.00 in0.0 mm 0.00 in0.0 mm
07:30 PM 84.3°F29.1°C 36.0°F2.2°C 18% Calm Calm -- 29.89 in1012.2 mb 0.00 in0.0 mm 0.00 in0.0 mm 0.00 in0.0 mm
07:40 PM 83.8°F28.8°C 36.0°F2.2°C 18% Calm Calm 1.0 mph1.6 kmh 29.89 in1012.2 mb 0.00 in0.0 mm 0.00 in0.0 mm 0.00 in0.0 mm
07:50 PM 84.2°F29.0°C 36.0°F2.2°C 18% Calm Calm 1.0 mph1.6 kmh 29.89 in1012.2 mb 0.00 in0.0 mm 0.00 in0.0 mm 0.00 in0.0 mm
08:00 PM 84.4°F29.1°C 36.0°F2.2°C 18% Calm Calm -- 29.89 in1012.2 mb 0.00 in0.0 mm 0.00 in0.0 mm 0.00 in0.0 mm
08:10 PM 84.0°F28.9°C 36.0°F2.2°C 18% Calm Calm 1.0 mph1.6 kmh 29.89 in1012.2 mb 0.00 in0.0 mm 0.00 in0.0 mm 0.00 in0.0 mm
08:20 PM 83.5°F28.6°C 36.0°F2.2°C 18% Calm Calm -- 29.90 in1012.5 mb 0.00 in0.0 mm 0.00 in0.0 mm 0.00 in0.0 mm
08:30 PM 82.6°F28.1°C 35.0°F1.7°C 18% Calm Calm -- 29.90 in1012.5 mb 0.00 in0.0 mm 0.00 in0.0 mm 0.00 in0.0 mm
08:40 PM 82.3°F27.9°C 36.0°F2.2°C 19% Calm Calm -- 29.90 in1012.5 mb 0.00 in0.0 mm 0.00 in0.0 mm 0.00 in0.0 mm
08:50 PM 82.0°F27.8°C 36.0°F2.2°C 19% Calm Calm -- 29.90 in1012.5 mb 0.00 in0.0 mm 0.00 in0.0 mm 0.00 in0.0 mm
09:00 PM 82.2°F27.9°C 36.0°F2.2°C 19% Calm Calm -- 29.91 in1012.9 mb 0.00 in0.0 mm 0.00 in0.0 mm 0.00 in0.0 mm
09:10 PM 81.9°F27.7°C 37.0°F2.8°C 20% Calm Calm -- 29.91 in1012.9 mb 0.00 in0.0 mm 0.00 in0.0 mm 0.00 in0.0 mm
09:20 PM 80.7°F27.1°C 37.0°F2.8°C 21% Calm Calm -- 29.91 in1012.9 mb 0.00 in0.0 mm 0.00 in0.0 mm 0.00 in0.0 mm
09:30 PM 80.2°F26.8°C 37.0°F2.8°C 21% Calm Calm -- 29.91 in1012.9 mb 0.00 in0.0 mm 0.00 in0.0 mm 0.00 in0.0 mm
09:40 PM 80.9°F27.2°C 36.0°F2.2°C 20% Calm Calm -- 29.91 in1012.9 mb 0.00 in0.0 mm 0.00 in0.0 mm 0.00 in0.0 mm
09:50 PM 80.3°F26.8°C 37.0°F2.8°C 21% Calm Calm -- 29.91 in1012.9 mb 0.00 in0.0 mm 0.00 in0.0 mm 0.00 in0.0 mm
10:00 PM 79.6°F26.4°C 38.0°F3.3°C 22% Calm Calm -- 29.91 in1012.9 mb 0.00 in0.0 mm 0.00 in0.0 mm 0.00 in0.0 mm
10:10 PM 78.8°F26.0°C 36.0°F2.2°C 21% Calm Calm -- 29.91 in1012.9 mb 0.00 in0.0 mm 0.00 in0.0 mm 0.00 in0.0 mm
10:20 PM 78.6°F25.9°C 35.0°F1.7°C 21% Calm Calm 1.0 mph1.6 kmh 29.91 in1012.9 mb 0.00 in0.0 mm 0.00 in0.0 mm 0.00 in0.0 mm
10:30 PM 79.5°F26.4°C 35.0°F1.7°C 20% 1.1 mph NNE1.8 kmh NNE 3.0 mph4.8 kmh 29.91 in1012.9 mb 0.00 in0.0 mm 0.00 in0.0 mm 0.00 in0.0 mm
10:40 PM 79.6°F26.4°C 35.0°F1.7°C 20% 2.0 mph NNE3.2 kmh NNE 3.0 mph4.8 kmh 29.91 in1012.9 mb 0.00 in0.0 mm 0.00 in0.0 mm 0.00 in0.0 mm
10:50 PM 79.9°F26.6°C 34.0°F1.1°C 19% 1.9 mph N3.1 kmh N 3.0 mph4.8 kmh 29.91 in1012.9 mb 0.00 in0.0 mm 0.00 in0.0 mm 0.00 in0.0 mm
11:00 PM 80.4°F26.9°C 34.0°F1.1°C 19% 1.6 mph NNE2.6 kmh NNE 4.0 mph6.4 kmh 29.91 in1012.9 mb 0.00 in0.0 mm 0.00 in0.0 mm 0.00 in0.0 mm
11:10 PM 80.7°F27.1°C 35.0°F1.7°C 19% 2.6 mph NE4.2 kmh NE 5.0 mph8.0 kmh 29.91 in1012.9 mb 0.00 in0.0 mm 0.00 in0.0 mm 0.00 in0.0 mm
11:20 PM 81.0°F27.2°C 35.0°F1.7°C 19% 2.4 mph N3.9 kmh N 4.0 mph6.4 kmh 29.90 in1012.5 mb 0.00 in0.0 mm 0.00 in0.0 mm 0.00 in0.0 mm
11:30 PM 81.2°F27.3°C 34.0°F1.1°C 18% 3.0 mph NE4.8 kmh NE 5.0 mph8.0 kmh 29.91 in1012.9 mb 0.00 in0.0 mm 0.00 in0.0 mm 0.00 in0.0 mm
11:40 PM 81.1°F27.3°C 34.0°F1.1°C 18% 3.2 mph N5.1 kmh N 7.0 mph11.3 kmh 29.91 in1012.9 mb 0.00 in0.0 mm 0.00 in0.0 mm 0.00 in0.0 mm
11:50 PM 81.1°F27.3°C 34.0°F1.1°C 18% 3.4 mph NNE5.5 kmh NNE 6.0 mph9.7 kmh 29.90 in1012.5 mb 0.00 in0.0 mm 0.00 in0.0 mm 0.00 in0.0 mm